sensor_id;sensor_type;location;lat;lon;timestamp;pressure;altitude;pressure_sealevel;temperature;humidity
21395;BME280;10858;42.714;23.180;2023-03-11T00:00:21;92640.00;;;10.62;90.29
21395;BME280;10858;42.714;23.180;2023-03-11T00:02:49;92628.69;;;10.68;89.99
21395;BME280;10858;42.714;23.180;2023-03-11T00:05:23;92640.34;;;10.59;89.94
21395;BME280;10858;42.714;23.180;2023-03-11T00:07:50;92636.59;;;10.53;89.79
21395;BME280;10858;42.714;23.180;2023-03-11T00:10:20;92639.38;;;10.60;89.33
21395;BME280;10858;42.714;23.180;2023-03-11T00:12:48;92634.44;;;10.94;89.45
21395;BME280;10858;42.714;23.180;2023-03-11T00:15:14;92627.53;;;11.22;87.12
21395;BME280;10858;42.714;23.180;2023-03-11T00:17:40;92630.72;;;11.18;86.47
21395;BME280;10858;42.714;23.180;2023-03-11T00:20:10;92630.53;;;11.19;87.26
21395;BME280;10858;42.714;23.180;2023-03-11T00:22:40;92622.56;;;11.19;86.38
21395;BME280;10858;42.714;23.180;2023-03-11T00:25:06;92633.44;;;11.09;86.72
21395;BME280;10858;42.714;23.180;2023-03-11T00:27:33;92613.59;;;11.20;87.79
21395;BME280;10858;42.714;23.180;2023-03-11T00:29:59;92606.56;;;11.27;86.56
21395;BME280;10858;42.714;23.180;2023-03-11T00:32:25;92616.72;;;11.24;86.34
21395;BME280;10858;42.714;23.180;2023-03-11T00:34:51;92607.56;;;11.26;86.51
21395;BME280;10858;42.714;23.180;2023-03-11T00:37:18;92606.81;;;11.03;87.39
21395;BME280;10858;42.714;23.180;2023-03-11T00:39:44;92591.44;;;11.13;86.18
21395;BME280;10858;42.714;23.180;2023-03-11T00:42:10;92592.41;;;10.83;87.15
21395;BME280;10858;42.714;23.180;2023-03-11T00:44:36;92592.16;;;10.78;86.97
21395;BME280;10858;42.714;23.180;2023-03-11T00:47:03;92597.88;;;10.67;88.02
21395;BME280;10858;42.714;23.180;2023-03-11T00:49:29;92602.97;;;10.68;88.28
21395;BME280;10858;42.714;23.180;2023-03-11T00:51:55;92593.13;;;10.77;88.09
21395;BME280;10858;42.714;23.180;2023-03-11T00:54:21;92593.03;;;10.70;87.51
21395;BME280;10858;42.714;23.180;2023-03-11T00:56:48;92582.91;;;10.74;87.49
21395;BME280;10858;42.714;23.180;2023-03-11T00:59:14;92565.44;;;10.42;89.20
21395;BME280;10858;42.714;23.180;2023-03-11T01:01:40;92561.34;;;10.40;89.00
21395;BME280;10858;42.714;23.180;2023-03-11T01:04:06;92556.31;;;10.45;88.12
21395;BME280;10858;42.714;23.180;2023-03-11T01:06:33;92547.69;;;10.28;89.04
21395;BME280;10858;42.714;23.180;2023-03-11T01:08:59;92547.56;;;10.21;89.48
21395;BME280;10858;42.714;23.180;2023-03-11T01:11:25;92545.56;;;10.23;89.79
21395;BME280;10858;42.714;23.180;2023-03-11T01:13:51;92527.41;;;10.35;89.48
21395;BME280;10858;42.714;23.180;2023-03-11T01:16:18;92519.91;;;10.24;89.58
21395;BME280;10858;42.714;23.180;2023-03-11T01:18:44;92509.00;;;10.19;89.58
21395;BME280;10858;42.714;23.180;2023-03-11T01:21:10;92490.03;;;10.30;88.70
21395;BME280;10858;42.714;23.180;2023-03-11T01:23:37;92493.72;;;10.44;88.41
21395;BME280;10858;42.714;23.180;2023-03-11T01:26:03;92497.72;;;10.40;88.03
21395;BME280;10858;42.714;23.180;2023-03-11T01:28:30;92487.81;;;10.19;89.34
21395;BME280;10858;42.714;23.180;2023-03-11T01:30:56;92498.72;;;10.24;89.54
21395;BME280;10858;42.714;23.180;2023-03-11T01:33:22;92498.38;;;10.42;88.90
21395;BME280;10858;42.714;23.180;2023-03-11T01:35:49;92497.03;;;10.23;89.19
21395;BME280;10858;42.714;23.180;2023-03-11T01:38:15;92494.06;;;10.26;89.84
21395;BME280;10858;42.714;23.180;2023-03-11T01:40:50;92496.78;;;10.33;89.87
21395;BME280;10858;42.714;23.180;2023-03-11T01:43:37;92520.16;;;10.66;88.10
21395;BME280;10858;42.714;23.180;2023-03-11T01:46:23;92524.47;;;10.67;87.91
21395;BME280;10858;42.714;23.180;2023-03-11T01:49:00;92539.53;;;10.67;88.49
21395;BME280;10858;42.714;23.180;2023-03-11T01:54:02;92542.34;;;10.51;90.04
21395;BME280;10858;42.714;23.180;2023-03-11T01:56:30;92528.25;;;10.36;90.98
21395;BME280;10858;42.714;23.180;2023-03-11T01:58:57;92528.31;;;10.42;90.97
21395;BME280;10858;42.714;23.180;2023-03-11T02:01:24;92531.25;;;10.33;91.15
21395;BME280;10858;42.714;23.180;2023-03-11T02:03:51;92531.88;;;10.35;91.32
21395;BME280;10858;42.714;23.180;2023-03-11T02:06:20;92538.13;;;10.42;90.41
21395;BME280;10858;42.714;23.180;2023-03-11T02:08:48;92538.13;;;10.42;89.90
21395;BME280;10858;42.714;23.180;2023-03-11T02:11:27;92540.59;;;10.43;89.58
21395;BME280;10858;42.714;23.180;2023-03-11T02:13:59;92538.84;;;10.36;89.41
21395;BME280;10858;42.714;23.180;2023-03-11T02:16:28;92550.50;;;10.26;89.84
21395;BME280;10858;42.714;23.180;2023-03-11T02:18:54;92556.03;;;10.40;88.67
21395;BME280;10858;42.714;23.180;2023-03-11T02:21:40;92565.59;;;10.26;88.76
21395;BME280;10858;42.714;23.180;2023-03-11T02:26:52;92574.06;;;10.21;88.63
21395;BME280;10858;42.714;23.180;2023-03-11T02:29:20;92574.59;;;10.17;89.07
21395;BME280;10858;42.714;23.180;2023-03-11T02:31:47;92582.78;;;10.30;88.11
21395;BME280;10858;42.714;23.180;2023-03-11T02:34:44;92578.84;;;10.26;88.91
21395;BME280;10858;42.714;23.180;2023-03-11T02:37:13;92580.66;;;10.25;89.57
21395;BME280;10858;42.714;23.180;2023-03-11T02:39:42;92592.56;;;10.30;89.53
21395;BME280;10858;42.714;23.180;2023-03-11T02:42:30;92591.47;;;10.39;89.03
21395;BME280;10858;42.714;23.180;2023-03-11T02:45:02;92594.78;;;10.41;89.36
21395;BME280;10858;42.714;23.180;2023-03-11T02:47:31;92592.06;;;10.49;88.96
21395;BME280;10858;42.714;23.180;2023-03-11T02:49:57;92583.19;;;10.42;88.62
21395;BME280;10858;42.714;23.180;2023-03-11T02:52:32;92583.72;;;10.37;88.80
21395;BME280;10858;42.714;23.180;2023-03-11T02:54:59;92584.69;;;10.59;88.90
21395;BME280;10858;42.714;23.180;2023-03-11T02:57:26;92572.81;;;10.69;88.05
21395;BME280;10858;42.714;23.180;2023-03-11T02:59:52;92579.38;;;10.59;87.87
21395;BME280;10858;42.714;23.180;2023-03-11T03:02:19;92568.31;;;10.55;87.79
21395;BME280;10858;42.714;23.180;2023-03-11T03:04:45;92570.44;;;10.60;87.71
21395;BME280;10858;42.714;23.180;2023-03-11T03:07:11;92572.72;;;10.63;87.25
21395;BME280;10858;42.714;23.180;2023-03-11T03:09:37;92579.13;;;10.68;87.18
21395;BME280;10858;42.714;23.180;2023-03-11T03:12:04;92575.28;;;10.71;86.98
21395;BME280;10858;42.714;23.180;2023-03-11T03:14:31;92580.75;;;10.55;86.72
21395;BME280;10858;42.714;23.180;2023-03-11T03:16:57;92586.75;;;10.49;87.43
21395;BME280;10858;42.714;23.180;2023-03-11T03:19:23;92590.94;;;10.66;87.00
21395;BME280;10858;42.714;23.180;2023-03-11T03:21:50;92586.84;;;10.78;86.15
21395;BME280;10858;42.714;23.180;2023-03-11T03:24:16;92582.28;;;10.49;86.33
21395;BME280;10858;42.714;23.180;2023-03-11T03:26:42;92579.44;;;10.51;86.94
21395;BME280;10858;42.714;23.180;2023-03-11T03:29:08;92591.34;;;10.55;86.50
21395;BME280;10858;42.714;23.180;2023-03-11T03:31:35;92581.38;;;10.57;86.52
21395;BME280;10858;42.714;23.180;2023-03-11T03:34:01;92594.28;;;10.60;86.13
21395;BME280;10858;42.714;23.180;2023-03-11T03:36:27;92583.75;;;10.52;86.45
21395;BME280;10858;42.714;23.180;2023-03-11T03:38:55;92582.50;;;10.62;86.42
21395;BME280;10858;42.714;23.180;2023-03-11T03:41:22;92589.09;;;10.66;86.31
21395;BME280;10858;42.714;23.180;2023-03-11T03:43:48;92587.91;;;10.69;85.44
21395;BME280;10858;42.714;23.180;2023-03-11T03:46:15;92589.78;;;10.60;85.70
21395;BME280;10858;42.714;23.180;2023-03-11T03:48:41;92591.09;;;10.64;85.57
21395;BME280;10858;42.714;23.180;2023-03-11T03:51:09;92588.28;;;10.66;84.72
21395;BME280;10858;42.714;23.180;2023-03-11T03:53:36;92592.50;;;10.75;84.89
21395;BME280;10858;42.714;23.180;2023-03-11T03:56:10;92589.31;;;10.79;84.42
21395;BME280;10858;42.714;23.180;2023-03-11T03:58:37;92587.38;;;10.73;84.54
21395;BME280;10858;42.714;23.180;2023-03-11T04:01:04;92587.38;;;10.73;84.19
21395;BME280;10858;42.714;23.180;2023-03-11T04:03:32;92583.88;;;10.73;84.55
21395;BME280;10858;42.714;23.180;2023-03-11T04:06:25;92581.06;;;10.74;84.69
21395;BME280;10858;42.714;23.180;2023-03-11T04:08:53;92580.59;;;10.71;84.69
21395;BME280;10858;42.714;23.180;2023-03-11T04:11:19;92572.16;;;10.53;84.01
21395;BME280;10858;42.714;23.180;2023-03-11T04:13:46;92576.72;;;10.59;83.44
21395;BME280;10858;42.714;23.180;2023-03-11T04:16:17;92580.25;;;10.88;83.71
21395;BME280;10858;42.714;23.180;2023-03-11T04:18:44;92585.19;;;10.77;83.37
21395;BME280;10858;42.714;23.180;2023-03-11T04:21:11;92593.59;;;10.80;83.75
21395;BME280;10858;42.714;23.180;2023-03-11T04:23:37;92588.13;;;10.82;83.00
21395;BME280;10858;42.714;23.180;2023-03-11T04:26:04;92578.09;;;10.92;82.98
21395;BME280;10858;42.714;23.180;2023-03-11T04:28:30;92584.03;;;10.94;82.87
21395;BME280;10858;42.714;23.180;2023-03-11T04:30:56;92580.16;;;10.96;82.04
21395;BME280;10858;42.714;23.180;2023-03-11T04:33:23;92580.91;;;11.05;80.85
21395;BME280;10858;42.714;23.180;2023-03-11T04:35:49;92589.78;;;10.97;81.24
21395;BME280;10858;42.714;23.180;2023-03-11T04:38:16;92589.41;;;11.00;81.17
21395;BME280;10858;42.714;23.180;2023-03-11T04:40:42;92586.41;;;11.03;80.91
21395;BME280;10858;42.714;23.180;2023-03-11T04:43:08;92590.88;;;11.03;81.23
21395;BME280;10858;42.714;23.180;2023-03-11T04:45:37;92584.75;;;11.17;81.27
21395;BME280;10858;42.714;23.180;2023-03-11T04:48:04;92590.53;;;11.21;80.65
21395;BME280;10858;42.714;23.180;2023-03-11T04:50:30;92587.69;;;11.07;79.84
21395;BME280;10858;42.714;23.180;2023-03-11T04:52:57;92588.16;;;11.11;79.13
21395;BME280;10858;42.714;23.180;2023-03-11T04:55:23;92585.84;;;11.23;78.26
21395;BME280;10858;42.714;23.180;2023-03-11T04:57:50;92594.56;;;11.17;77.60
21395;BME280;10858;42.714;23.180;2023-03-11T05:00:16;92600.50;;;11.19;78.13
21395;BME280;10858;42.714;23.180;2023-03-11T05:02:47;92611.59;;;11.22;77.91
21395;BME280;10858;42.714;23.180;2023-03-11T05:05:13;92621.28;;;11.15;78.96
21395;BME280;10858;42.714;23.180;2023-03-11T05:07:39;92618.13;;;10.97;80.22
21395;BME280;10858;42.714;23.180;2023-03-11T05:10:06;92622.53;;;11.04;80.30
21395;BME280;10858;42.714;23.180;2023-03-11T05:12:32;92619.34;;;11.09;79.97
21395;BME280;10858;42.714;23.180;2023-03-11T05:14:59;92624.00;;;11.07;79.85
21395;BME280;10858;42.714;23.180;2023-03-11T05:17:25;92628.47;;;11.06;80.00
21395;BME280;10858;42.714;23.180;2023-03-11T05:19:52;92625.75;;;11.14;79.51
21395;BME280;10858;42.714;23.180;2023-03-11T05:22:19;92638.84;;;11.16;78.62
21395;BME280;10858;42.714;23.180;2023-03-11T05:24:46;92650.91;;;11.04;78.43
21395;BME280;10858;42.714;23.180;2023-03-11T05:27:13;92650.38;;;11.23;78.14
21395;BME280;10858;42.714;23.180;2023-03-11T05:29:43;92647.47;;;11.18;79.01
21395;BME280;10858;42.714;23.180;2023-03-11T05:32:11;92648.47;;;11.17;77.82
21395;BME280;10858;42.714;23.180;2023-03-11T05:34:37;92648.19;;;11.27;76.70
21395;BME280;10858;42.714;23.180;2023-03-11T05:37:04;92646.56;;;11.55;75.83
21395;BME280;10858;42.714;23.180;2023-03-11T05:39:30;92666.34;;;11.52;75.85
21395;BME280;10858;42.714;23.180;2023-03-11T05:41:56;92664.22;;;11.62;76.81
21395;BME280;10858;42.714;23.180;2023-03-11T05:44:23;92663.47;;;11.25;78.88
21395;BME280;10858;42.714;23.180;2023-03-11T05:46:49;92666.69;;;11.35;78.88
21395;BME280;10858;42.714;23.180;2023-03-11T05:49:15;92658.53;;;11.22;79.22
21395;BME280;10858;42.714;23.180;2023-03-11T05:51:41;92663.31;;;11.26;79.36
21395;BME280;10858;42.714;23.180;2023-03-11T05:54:08;92673.91;;;11.26;80.10
21395;BME280;10858;42.714;23.180;2023-03-11T05:56:41;92681.81;;;11.34;79.60
21395;BME280;10858;42.714;23.180;2023-03-11T05:59:07;92677.69;;;11.46;79.16
21395;BME280;10858;42.714;23.180;2023-03-11T06:01:34;92678.38;;;11.11;79.66
21395;BME280;10858;42.714;23.180;2023-03-11T06:04:00;92682.03;;;11.10;80.16
21395;BME280;10858;42.714;23.180;2023-03-11T06:06:27;92682.50;;;11.13;80.42
21395;BME280;10858;42.714;23.180;2023-03-11T06:08:54;92678.66;;;11.16;80.07
21395;BME280;10858;42.714;23.180;2023-03-11T06:11:20;92671.44;;;11.10;80.50
21395;BME280;10858;42.714;23.180;2023-03-11T06:13:52;92680.94;;;11.19;80.22
21395;BME280;10858;42.714;23.180;2023-03-11T06:16:19;92681.78;;;11.20;80.30
21395;BME280;10858;42.714;23.180;2023-03-11T06:18:46;92686.63;;;11.16;81.00
21395;BME280;10858;42.714;23.180;2023-03-11T06:21:19;92682.22;;;11.23;81.02
21395;BME280;10858;42.714;23.180;2023-03-11T06:23:45;92691.50;;;11.42;79.50
21395;BME280;10858;42.714;23.180;2023-03-11T06:26:14;92691.88;;;11.53;79.95
21395;BME280;10858;42.714;23.180;2023-03-11T06:28:45;92689.13;;;11.47;78.44
21395;BME280;10858;42.714;23.180;2023-03-11T06:31:18;92679.78;;;11.36;78.65
21395;BME280;10858;42.714;23.180;2023-03-11T06:33:45;92696.00;;;11.56;77.68
21395;BME280;10858;42.714;23.180;2023-03-11T06:36:13;92690.25;;;11.52;78.01
21395;BME280;10858;42.714;23.180;2023-03-11T06:38:40;92683.31;;;11.66;77.77
21395;BME280;10858;42.714;23.180;2023-03-11T06:41:07;92698.59;;;11.78;77.89
21395;BME280;10858;42.714;23.180;2023-03-11T06:43:34;92696.38;;;11.96;77.01
21395;BME280;10858;42.714;23.180;2023-03-11T06:46:06;92694.75;;;12.10;76.64
21395;BME280;10858;42.714;23.180;2023-03-11T06:48:32;92702.88;;;12.09;75.45
21395;BME280;10858;42.714;23.180;2023-03-11T06:51:00;92698.84;;;12.13;76.29
21395;BME280;10858;42.714;23.180;2023-03-11T06:53:28;92695.31;;;11.91;75.48
21395;BME280;10858;42.714;23.180;2023-03-11T06:58:32;92702.47;;;11.76;74.18
21395;BME280;10858;42.714;23.180;2023-03-11T07:01:05;92697.50;;;11.87;75.30
21395;BME280;10858;42.714;23.180;2023-03-11T07:03:32;92696.94;;;12.07;75.25
21395;BME280;10858;42.714;23.180;2023-03-11T07:05:58;92698.19;;;12.11;75.46
21395;BME280;10858;42.714;23.180;2023-03-11T07:08:25;92691.28;;;12.31;76.46
21395;BME280;10858;42.714;23.180;2023-03-11T07:11:02;92683.94;;;12.47;73.24
21395;BME280;10858;42.714;23.180;2023-03-11T07:13:29;92701.66;;;12.40;71.30
21395;BME280;10858;42.714;23.180;2023-03-11T07:16:05;92690.84;;;12.63;71.42
21395;BME280;10858;42.714;23.180;2023-03-11T07:18:33;92685.41;;;12.92;70.77
21395;BME280;10858;42.714;23.180;2023-03-11T07:21:02;92679.91;;;12.94;70.44
21395;BME280;10858;42.714;23.180;2023-03-11T07:23:28;92678.06;;;13.15;69.66
21395;BME280;10858;42.714;23.180;2023-03-11T07:25:55;92679.63;;;13.31;69.56
21395;BME280;10858;42.714;23.180;2023-03-11T07:28:22;92681.22;;;13.25;66.15
21395;BME280;10858;42.714;23.180;2023-03-11T07:30:49;92674.72;;;13.07;67.79
21395;BME280;10858;42.714;23.180;2023-03-11T07:33:15;92678.06;;;13.36;67.80
21395;BME280;10858;42.714;23.180;2023-03-11T07:35:42;92669.63;;;15.28;62.07
21395;BME280;10858;42.714;23.180;2023-03-11T07:38:09;92658.84;;;17.09;56.38
21395;BME280;10858;42.714;23.180;2023-03-11T07:40:35;92660.50;;;18.81;50.48
21395;BME280;10858;42.714;23.180;2023-03-11T07:43:02;92645.72;;;21.16;45.12
21395;BME280;10858;42.714;23.180;2023-03-11T07:45:28;92648.72;;;21.20;43.74
21395;BME280;10858;42.714;23.180;2023-03-11T07:47:54;92643.53;;;21.01;43.04
21395;BME280;10858;42.714;23.180;2023-03-11T07:50:20;92647.94;;;18.93;47.08
21395;BME280;10858;42.714;23.180;2023-03-11T07:52:49;92644.81;;;20.01;44.81
21395;BME280;10858;42.714;23.180;2023-03-11T07:55:16;92634.63;;;20.50;43.31
21395;BME280;10858;42.714;23.180;2023-03-11T07:57:42;92634.22;;;19.42;44.71
21395;BME280;10858;42.714;23.180;2023-03-11T08:00:09;92632.31;;;17.81;49.19
21395;BME280;10858;42.714;23.180;2023-03-11T08:02:37;92624.28;;;17.00;51.24
21395;BME280;10858;42.714;23.180;2023-03-11T08:05:04;92623.75;;;17.66;50.29
21395;BME280;10858;42.714;23.180;2023-03-11T08:07:31;92621.03;;;19.52;46.95
21395;BME280;10858;42.714;23.180;2023-03-11T08:09:58;92614.41;;;19.78;46.42
21395;BME280;10858;42.714;23.180;2023-03-11T08:12:24;92614.66;;;18.64;46.43
21395;BME280;10858;42.714;23.180;2023-03-11T08:14:51;92599.19;;;19.19;43.84
21395;BME280;10858;42.714;23.180;2023-03-11T08:17:17;92600.19;;;19.36;43.50
21395;BME280;10858;42.714;23.180;2023-03-11T08:19:43;92595.06;;;18.27;45.71
21395;BME280;10858;42.714;23.180;2023-03-11T08:22:09;92588.00;;;19.22;43.85
21395;BME280;10858;42.714;23.180;2023-03-11T08:24:35;92579.88;;;19.86;41.76
21395;BME280;10858;42.714;23.180;2023-03-11T08:27:09;92577.00;;;19.12;44.60
21395;BME280;10858;42.714;23.180;2023-03-11T08:29:37;92574.88;;;18.73;45.13
21395;BME280;10858;42.714;23.180;2023-03-11T08:32:03;92561.78;;;18.28;43.37
21395;BME280;10858;42.714;23.180;2023-03-11T08:34:29;92560.91;;;19.35;44.16
21395;BME280;10858;42.714;23.180;2023-03-11T08:36:56;92573.09;;;19.61;45.10
21395;BME280;10858;42.714;23.180;2023-03-11T08:39:22;92563.72;;;19.40;45.42
21395;BME280;10858;42.714;23.180;2023-03-11T08:41:49;92559.16;;;19.40;44.67
21395;BME280;10858;42.714;23.180;2023-03-11T08:44:15;92555.53;;;19.46;43.19
21395;BME280;10858;42.714;23.180;2023-03-11T08:46:41;92549.97;;;19.07;44.51
21395;BME280;10858;42.714;23.180;2023-03-11T08:49:07;92555.78;;;19.68;44.98
21395;BME280;10858;42.714;23.180;2023-03-11T08:51:35;92557.66;;;18.92;45.33
21395;BME280;10858;42.714;23.180;2023-03-11T08:54:02;92556.97;;;18.66;46.52
21395;BME280;10858;42.714;23.180;2023-03-11T08:56:29;92550.13;;;18.82;46.56
21395;BME280;10858;42.714;23.180;2023-03-11T08:58:55;92549.28;;;18.70;45.97
21395;BME280;10858;42.714;23.180;2023-03-11T09:01:22;92545.06;;;18.62;46.39
21395;BME280;10858;42.714;23.180;2023-03-11T09:03:48;92557.41;;;17.37;46.67
21395;BME280;10858;42.714;23.180;2023-03-11T09:06:16;92554.75;;;17.79;47.28
21395;BME280;10858;42.714;23.180;2023-03-11T09:08:43;92547.03;;;18.37;47.97
21395;BME280;10858;42.714;23.180;2023-03-11T09:11:09;92550.03;;;18.47;49.23
21395;BME280;10858;42.714;23.180;2023-03-11T09:13:38;92551.75;;;17.69;46.83
21395;BME280;10858;42.714;23.180;2023-03-11T09:16:13;92550.06;;;17.93;47.64
21395;BME280;10858;42.714;23.180;2023-03-11T09:18:40;92553.41;;;17.89;45.82
21395;BME280;10858;42.714;23.180;2023-03-11T09:21:06;92540.47;;;18.33;45.60
21395;BME280;10858;42.714;23.180;2023-03-11T09:23:32;92540.28;;;19.06;44.53
21395;BME280;10858;42.714;23.180;2023-03-11T09:25:58;92539.06;;;18.49;46.50
21395;BME280;10858;42.714;23.180;2023-03-11T09:28:25;92531.81;;;17.16;48.60
21395;BME280;10858;42.714;23.180;2023-03-11T09:30:51;92529.47;;;18.05;47.79
21395;BME280;10858;42.714;23.180;2023-03-11T09:33:18;92529.69;;;18.81;45.67
21395;BME280;10858;42.714;23.180;2023-03-11T09:35:44;92532.59;;;18.02;47.38
21395;BME280;10858;42.714;23.180;2023-03-11T09:38:10;92536.53;;;18.18;44.72
21395;BME280;10858;42.714;23.180;2023-03-11T09:43:43;92532.09;;;18.41;46.19
21395;BME280;10858;42.714;23.180;2023-03-11T09:52:08;92523.50;;;17.24;45.99
21395;BME280;10858;42.714;23.180;2023-03-11T09:54:39;92527.50;;;16.90;46.38
21395;BME280;10858;42.714;23.180;2023-03-11T09:57:11;92524.75;;;16.72;46.00
21395;BME280;10858;42.714;23.180;2023-03-11T09:59:40;92522.66;;;16.05;46.22
21395;BME280;10858;42.714;23.180;2023-03-11T10:02:16;92527.88;;;16.32;46.71
21395;BME280;10858;42.714;23.180;2023-03-11T10:07:42;92528.94;;;16.62;46.95
21395;BME280;10858;42.714;23.180;2023-03-11T10:10:13;92533.78;;;16.78;46.30
21395;BME280;10858;42.714;23.180;2023-03-11T10:26:31;92539.44;;;17.19;43.30
21395;BME280;10858;42.714;23.180;2023-03-11T10:34:36;92528.84;;;16.06;44.88
21395;BME280;10858;42.714;23.180;2023-03-11T10:37:30;92542.75;;;15.77;47.70
21395;BME280;10858;42.714;23.180;2023-03-11T10:40:15;92554.53;;;14.52;53.41
21395;BME280;10858;42.714;23.180;2023-03-11T10:42:44;92549.22;;;13.91;57.33
21395;BME280;10858;42.714;23.180;2023-03-11T10:45:12;92552.16;;;14.03;54.88
21395;BME280;10858;42.714;23.180;2023-03-11T10:47:39;92548.81;;;14.61;55.35
21395;BME280;10858;42.714;23.180;2023-03-11T10:50:05;92544.69;;;15.17;51.44
21395;BME280;10858;42.714;23.180;2023-03-11T10:52:43;92545.09;;;16.11;49.62
21395;BME280;10858;42.714;23.180;2023-03-11T10:55:15;92545.88;;;17.12;47.05
21395;BME280;10858;42.714;23.180;2023-03-11T10:57:44;92540.13;;;17.33;47.12
21395;BME280;10858;42.714;23.180;2023-03-11T11:00:28;92538.66;;;17.37;46.33
21395;BME280;10858;42.714;23.180;2023-03-11T11:02:55;92534.84;;;18.83;43.72
21395;BME280;10858;42.714;23.180;2023-03-11T11:05:27;92529.53;;;19.06;44.23
21395;BME280;10858;42.714;23.180;2023-03-11T11:08:06;92529.97;;;18.91;42.91
21395;BME280;10858;42.714;23.180;2023-03-11T11:10:35;92530.56;;;18.93;46.00
21395;BME280;10858;42.714;23.180;2023-03-11T11:15:40;92527.22;;;17.66;46.32
21395;BME280;10858;42.714;23.180;2023-03-11T11:18:20;92521.88;;;17.23;48.25
21395;BME280;10858;42.714;23.180;2023-03-11T11:21:06;92516.56;;;17.17;48.13
21395;BME280;10858;42.714;23.180;2023-03-11T11:23:42;92511.34;;;17.22;45.63
21395;BME280;10858;42.714;23.180;2023-03-11T11:26:22;92502.63;;;16.83;44.85
21395;BME280;10858;42.714;23.180;2023-03-11T11:31:35;92486.56;;;15.83;46.99
21395;BME280;10858;42.714;23.180;2023-03-11T11:34:01;92487.34;;;15.97;46.72
21395;BME280;10858;42.714;23.180;2023-03-11T11:36:33;92477.28;;;15.92;46.96
21395;BME280;10858;42.714;23.180;2023-03-11T11:39:14;92465.84;;;16.10;50.18
21395;BME280;10858;42.714;23.180;2023-03-11T11:41:42;92458.63;;;17.58;49.27
21395;BME280;10858;42.714;23.180;2023-03-11T11:44:16;92450.47;;;18.60;44.04
21395;BME280;10858;42.714;23.180;2023-03-11T11:47:02;92447.66;;;18.55;43.56
21395;BME280;10858;42.714;23.180;2023-03-11T11:49:34;92446.63;;;18.38;40.63
21395;BME280;10858;42.714;23.180;2023-03-11T11:52:26;92454.09;;;18.66;40.27
21395;BME280;10858;42.714;23.180;2023-03-11T11:55:23;92466.31;;;18.50;39.62
21395;BME280;10858;42.714;23.180;2023-03-11T11:57:51;92457.47;;;19.37;38.37
21395;BME280;10858;42.714;23.180;2023-03-11T12:06:01;92445.84;;;18.91;38.47
21395;BME280;10858;42.714;23.180;2023-03-11T12:11:05;92436.28;;;18.95;37.51
21395;BME280;10858;42.714;23.180;2023-03-11T12:16:45;92423.38;;;20.46;35.57
21395;BME280;10858;42.714;23.180;2023-03-11T12:19:40;92433.91;;;19.68;37.31
21395;BME280;10858;42.714;23.180;2023-03-11T12:22:34;92442.78;;;19.68;37.00
21395;BME280;10858;42.714;23.180;2023-03-11T12:25:18;92447.22;;;18.40;39.34
21395;BME280;10858;42.714;23.180;2023-03-11T12:30:52;92426.00;;;18.09;39.32
21395;BME280;10858;42.714;23.180;2023-03-11T12:33:29;92440.66;;;17.23;41.89
21395;BME280;10858;42.714;23.180;2023-03-11T12:35:58;92441.34;;;16.93;43.10
21395;BME280;10858;42.714;23.180;2023-03-11T12:46:14;92450.63;;;16.73;43.32
21395;BME280;10858;42.714;23.180;2023-03-11T12:53:53;92468.44;;;16.61;43.50
21395;BME280;10858;42.714;23.180;2023-03-11T13:08:09;92516.28;;;14.12;51.20
21395;BME280;10858;42.714;23.180;2023-03-11T13:10:50;92512.53;;;13.93;55.73
21395;BME280;10858;42.714;23.180;2023-03-11T13:13:37;92533.69;;;13.95;54.57
21395;BME280;10858;42.714;23.180;2023-03-11T13:18:41;92571.88;;;12.50;67.59
21395;BME280;10858;42.714;23.180;2023-03-11T13:32:35;92598.50;;;10.69;80.04
21395;BME280;10858;42.714;23.180;2023-03-11T13:41:29;92603.09;;;10.38;85.24
21395;BME280;10858;42.714;23.180;2023-03-11T13:44:09;92600.59;;;10.36;82.86
21395;BME280;10858;42.714;23.180;2023-03-11T13:46:39;92587.44;;;10.65;83.89
21395;BME280;10858;42.714;23.180;2023-03-11T13:52:01;92576.13;;;11.59;83.38
21395;BME280;10858;42.714;23.180;2023-03-11T13:54:32;92568.50;;;12.00;82.41
21395;BME280;10858;42.714;23.180;2023-03-11T13:57:01;92575.06;;;12.04;81.22
21395;BME280;10858;42.714;23.180;2023-03-11T13:59:31;92563.28;;;12.13;80.74
21395;BME280;10858;42.714;23.180;2023-03-11T14:02:10;92577.34;;;12.07;80.66
21395;BME280;10858;42.714;23.180;2023-03-11T14:05:01;92585.19;;;12.15;79.48
21395;BME280;10858;42.714;23.180;2023-03-11T14:07:31;92588.69;;;11.79;81.84
21395;BME280;10858;42.714;23.180;2023-03-11T14:12:45;92588.22;;;11.61;83.25
21395;BME280;10858;42.714;23.180;2023-03-11T14:15:36;92590.72;;;11.77;81.14
21395;BME280;10858;42.714;23.180;2023-03-11T14:18:28;92591.97;;;11.96;81.11
21395;BME280;10858;42.714;23.180;2023-03-11T14:20:56;92597.22;;;12.11;81.03
21395;BME280;10858;42.714;23.180;2023-03-11T14:23:26;92604.72;;;12.22;82.43
21395;BME280;10858;42.714;23.180;2023-03-11T14:26:07;92601.72;;;12.10;82.36
21395;BME280;10858;42.714;23.180;2023-03-11T14:28:38;92592.88;;;11.88;83.60
21395;BME280;10858;42.714;23.180;2023-03-11T14:31:05;92602.41;;;11.98;83.57
21395;BME280;10858;42.714;23.180;2023-03-11T14:33:32;92606.66;;;11.77;80.33
21395;BME280;10858;42.714;23.180;2023-03-11T14:36:03;92613.25;;;11.52;81.19
21395;BME280;10858;42.714;23.180;2023-03-11T14:38:32;92616.09;;;11.36;80.44
21395;BME280;10858;42.714;23.180;2023-03-11T14:41:05;92623.41;;;11.20;81.49
21395;BME280;10858;42.714;23.180;2023-03-11T14:43:33;92630.44;;;11.27;81.80
21395;BME280;10858;42.714;23.180;2023-03-11T14:46:02;92641.22;;;11.11;83.14
21395;BME280;10858;42.714;23.180;2023-03-11T14:48:39;92646.63;;;11.18;83.64
21395;BME280;10858;42.714;23.180;2023-03-11T14:51:18;92653.75;;;11.17;85.43